sensor_id;sensor_type;location;lat;lon;timestamp;P1;durP1;ratioP1;P2;durP2;ratioP2
70796;SDS011;63842;52.144;5.360;2024-01-15T00:03:49;3.17;;;0.80;;
70796;SDS011;63842;52.144;5.360;2024-01-15T00:06:16;3.92;;;0.70;;
70796;SDS011;63842;52.144;5.360;2024-01-15T00:08:44;4.00;;;1.20;;
70796;SDS011;63842;52.144;5.360;2024-01-15T00:11:11;7.40;;;1.13;;
70796;SDS011;63842;52.144;5.360;2024-01-15T00:13:38;4.55;;;0.90;;
70796;SDS011;63842;52.144;5.360;2024-01-15T00:16:06;6.60;;;0.73;;
70796;SDS011;63842;52.144;5.360;2024-01-15T00:18:34;6.10;;;0.90;;
70796;SDS011;63842;52.144;5.360;2024-01-15T00:21:01;9.52;;;1.10;;
70796;SDS011;63842;52.144;5.360;2024-01-15T00:23:29;5.80;;;0.75;;
70796;SDS011;63842;52.144;5.360;2024-01-15T00:25:57;3.03;;;0.70;;
70796;SDS011;63842;52.144;5.360;2024-01-15T00:28:24;6.60;;;0.88;;
70796;SDS011;63842;52.144;5.360;2024-01-15T00:30:51;5.68;;;0.80;;
70796;SDS011;63842;52.144;5.360;2024-01-15T00:33:19;5.15;;;1.33;;
70796;SDS011;63842;52.144;5.360;2024-01-15T00:35:47;4.05;;;0.80;;
70796;SDS011;63842;52.144;5.360;2024-01-15T00:38:14;4.53;;;0.70;;
70796;SDS011;63842;52.144;5.360;2024-01-15T00:40:41;4.65;;;0.95;;
70796;SDS011;63842;52.144;5.360;2024-01-15T00:43:09;5.32;;;0.85;;
70796;SDS011;63842;52.144;5.360;2024-01-15T00:45:36;5.63;;;1.20;;
70796;SDS011;63842;52.144;5.360;2024-01-15T00:48:04;6.82;;;0.93;;
70796;SDS011;63842;52.144;5.360;2024-01-15T00:50:31;4.45;;;0.80;;
70796;SDS011;63842;52.144;5.360;2024-01-15T00:52:59;5.22;;;0.90;;
70796;SDS011;63842;52.144;5.360;2024-01-15T00:55:27;4.60;;;1.00;;
70796;SDS011;63842;52.144;5.360;2024-01-15T00:57:54;4.85;;;1.38;;
70796;SDS011;63842;52.144;5.360;2024-01-15T01:00:21;7.20;;;0.80;;
70796;SDS011;63842;52.144;5.360;2024-01-15T01:02:49;4.70;;;0.77;;
70796;SDS011;63842;52.144;5.360;2024-01-15T01:05:16;7.72;;;1.48;;
70796;SDS011;63842;52.144;5.360;2024-01-15T01:07:44;5.25;;;1.00;;
70796;SDS011;63842;52.144;5.360;2024-01-15T01:10:11;4.72;;;0.80;;
70796;SDS011;63842;52.144;5.360;2024-01-15T01:12:38;6.55;;;1.00;;
70796;SDS011;63842;52.144;5.360;2024-01-15T01:15:06;11.25;;;1.10;;
70796;SDS011;63842;52.144;5.360;2024-01-15T01:17:34;5.50;;;0.90;;
70796;SDS011;63842;52.144;5.360;2024-01-15T01:20:02;5.15;;;0.82;;
70796;SDS011;63842;52.144;5.360;2024-01-15T01:22:32;4.88;;;1.08;;
70796;SDS011;63842;52.144;5.360;2024-01-15T01:25:00;5.38;;;0.98;;
70796;SDS011;63842;52.144;5.360;2024-01-15T01:27:27;10.65;;;1.23;;
70796;SDS011;63842;52.144;5.360;2024-01-15T01:29:54;4.15;;;0.88;;
70796;SDS011;63842;52.144;5.360;2024-01-15T01:32:22;7.75;;;0.95;;
70796;SDS011;63842;52.144;5.360;2024-01-15T01:34:49;8.90;;;1.15;;
70796;SDS011;63842;52.144;5.360;2024-01-15T01:37:17;4.88;;;0.80;;
70796;SDS011;63842;52.144;5.360;2024-01-15T01:39:45;5.68;;;1.05;;
70796;SDS011;63842;52.144;5.360;2024-01-15T01:42:12;7.15;;;1.13;;
70796;SDS011;63842;52.144;5.360;2024-01-15T01:44:40;7.63;;;0.98;;
70796;SDS011;63842;52.144;5.360;2024-01-15T01:47:07;2.88;;;0.75;;
70796;SDS011;63842;52.144;5.360;2024-01-15T01:49:35;5.82;;;0.90;;
70796;SDS011;63842;52.144;5.360;2024-01-15T01:52:03;5.20;;;0.88;;
70796;SDS011;63842;52.144;5.360;2024-01-15T01:54:33;6.68;;;0.90;;
70796;SDS011;63842;52.144;5.360;2024-01-15T01:57:01;5.07;;;0.68;;
70796;SDS011;63842;52.144;5.360;2024-01-15T01:59:30;8.05;;;1.02;;
70796;SDS011;63842;52.144;5.360;2024-01-15T02:01:57;7.15;;;1.42;;
70796;SDS011;63842;52.144;5.360;2024-01-15T02:04:26;10.73;;;1.10;;
70796;SDS011;63842;52.144;5.360;2024-01-15T02:06:54;7.15;;;1.05;;
70796;SDS011;63842;52.144;5.360;2024-01-15T02:09:22;3.88;;;0.93;;
70796;SDS011;63842;52.144;5.360;2024-01-15T02:11:49;7.07;;;0.95;;
70796;SDS011;63842;52.144;5.360;2024-01-15T02:14:16;5.80;;;1.15;;
70796;SDS011;63842;52.144;5.360;2024-01-15T02:16:44;8.50;;;1.23;;
70796;SDS011;63842;52.144;5.360;2024-01-15T02:19:15;3.33;;;0.70;;
70796;SDS011;63842;52.144;5.360;2024-01-15T02:21:46;8.73;;;1.30;;
70796;SDS011;63842;52.144;5.360;2024-01-15T02:24:13;7.38;;;0.90;;
70796;SDS011;63842;52.144;5.360;2024-01-15T02:26:41;6.18;;;0.70;;
70796;SDS011;63842;52.144;5.360;2024-01-15T02:29:09;5.28;;;0.80;;
70796;SDS011;63842;52.144;5.360;2024-01-15T02:31:36;5.20;;;0.95;;
70796;SDS011;63842;52.144;5.360;2024-01-15T02:34:04;4.50;;;0.80;;
70796;SDS011;63842;52.144;5.360;2024-01-15T02:36:32;6.03;;;1.20;;
70796;SDS011;63842;52.144;5.360;2024-01-15T02:38:59;7.00;;;0.88;;
70796;SDS011;63842;52.144;5.360;2024-01-15T02:41:26;2.42;;;0.40;;
70796;SDS011;63842;52.144;5.360;2024-01-15T02:43:54;4.65;;;0.73;;
70796;SDS011;63842;52.144;5.360;2024-01-15T02:46:21;3.47;;;0.40;;
70796;SDS011;63842;52.144;5.360;2024-01-15T02:48:48;3.75;;;0.45;;
70796;SDS011;63842;52.144;5.360;2024-01-15T02:51:16;3.20;;;0.65;;
70796;SDS011;63842;52.144;5.360;2024-01-15T02:53:44;2.38;;;0.60;;
70796;SDS011;63842;52.144;5.360;2024-01-15T02:56:12;5.30;;;1.38;;
70796;SDS011;63842;52.144;5.360;2024-01-15T02:58:39;3.20;;;0.57;;
70796;SDS011;63842;52.144;5.360;2024-01-15T03:01:07;2.72;;;0.68;;
70796;SDS011;63842;52.144;5.360;2024-01-15T03:03:34;2.45;;;0.22;;
70796;SDS011;63842;52.144;5.360;2024-01-15T03:06:02;2.65;;;0.40;;
70796;SDS011;63842;52.144;5.360;2024-01-15T03:08:29;2.65;;;0.70;;
70796;SDS011;63842;52.144;5.360;2024-01-15T03:10:56;5.95;;;0.70;;
70796;SDS011;63842;52.144;5.360;2024-01-15T03:13:25;3.70;;;0.60;;
70796;SDS011;63842;52.144;5.360;2024-01-15T03:15:52;4.45;;;0.73;;
70796;SDS011;63842;52.144;5.360;2024-01-15T03:18:20;5.68;;;0.60;;
70796;SDS011;63842;52.144;5.360;2024-01-15T03:20:47;2.17;;;0.65;;
70796;SDS011;63842;52.144;5.360;2024-01-15T03:23:14;3.25;;;0.43;;
70796;SDS011;63842;52.144;5.360;2024-01-15T03:25:42;4.35;;;0.50;;
70796;SDS011;63842;52.144;5.360;2024-01-15T03:28:09;5.00;;;0.85;;
70796;SDS011;63842;52.144;5.360;2024-01-15T03:30:36;1.90;;;0.40;;
70796;SDS011;63842;52.144;5.360;2024-01-15T03:33:04;2.95;;;0.30;;
70796;SDS011;63842;52.144;5.360;2024-01-15T03:35:31;2.75;;;0.50;;
70796;SDS011;63842;52.144;5.360;2024-01-15T03:37:58;2.95;;;0.52;;
70796;SDS011;63842;52.144;5.360;2024-01-15T03:40:26;3.58;;;0.77;;
70796;SDS011;63842;52.144;5.360;2024-01-15T03:42:53;3.83;;;0.63;;
70796;SDS011;63842;52.144;5.360;2024-01-15T03:45:21;3.30;;;0.60;;
70796;SDS011;63842;52.144;5.360;2024-01-15T03:47:49;1.73;;;0.55;;
70796;SDS011;63842;52.144;5.360;2024-01-15T03:50:16;3.92;;;0.60;;
70796;SDS011;63842;52.144;5.360;2024-01-15T03:52:43;3.90;;;0.82;;
70796;SDS011;63842;52.144;5.360;2024-01-15T03:55:11;3.20;;;0.70;;
70796;SDS011;63842;52.144;5.360;2024-01-15T03:57:38;3.75;;;0.52;;
70796;SDS011;63842;52.144;5.360;2024-01-15T04:00:06;3.33;;;0.63;;
70796;SDS011;63842;52.144;5.360;2024-01-15T04:02:34;4.80;;;0.90;;
70796;SDS011;63842;52.144;5.360;2024-01-15T04:05:01;2.35;;;0.50;;
70796;SDS011;63842;52.144;5.360;2024-01-15T04:07:28;2.75;;;0.45;;
70796;SDS011;63842;52.144;5.360;2024-01-15T04:09:56;3.17;;;0.47;;
70796;SDS011;63842;52.144;5.360;2024-01-15T04:12:23;2.42;;;0.73;;
70796;SDS011;63842;52.144;5.360;2024-01-15T04:14:50;4.45;;;0.60;;
70796;SDS011;63842;52.144;5.360;2024-01-15T04:17:18;1.60;;;0.50;;
70796;SDS011;63842;52.144;5.360;2024-01-15T04:19:45;5.63;;;0.80;;
70796;SDS011;63842;52.144;5.360;2024-01-15T04:22:14;1.75;;;0.47;;
70796;SDS011;63842;52.144;5.360;2024-01-15T04:24:41;7.10;;;0.95;;
70796;SDS011;63842;52.144;5.360;2024-01-15T04:27:09;2.42;;;0.70;;
70796;SDS011;63842;52.144;5.360;2024-01-15T04:29:39;3.90;;;0.75;;
70796;SDS011;63842;52.144;5.360;2024-01-15T04:32:07;4.40;;;0.70;;
70796;SDS011;63842;52.144;5.360;2024-01-15T04:34:34;4.65;;;1.00;;
70796;SDS011;63842;52.144;5.360;2024-01-15T04:37:02;4.47;;;0.68;;
70796;SDS011;63842;52.144;5.360;2024-01-15T04:39:29;5.75;;;0.93;;
70796;SDS011;63842;52.144;5.360;2024-01-15T04:41:57;2.15;;;0.45;;
70796;SDS011;63842;52.144;5.360;2024-01-15T04:44:24;5.00;;;0.80;;
70796;SDS011;63842;52.144;5.360;2024-01-15T04:46:51;9.63;;;1.02;;
70796;SDS011;63842;52.144;5.360;2024-01-15T04:49:19;4.78;;;1.05;;
70796;SDS011;63842;52.144;5.360;2024-01-15T04:51:46;3.47;;;0.60;;
70796;SDS011;63842;52.144;5.360;2024-01-15T04:54:14;3.08;;;0.60;;
70796;SDS011;63842;52.144;5.360;2024-01-15T04:56:44;2.42;;;0.60;;
70796;SDS011;63842;52.144;5.360;2024-01-15T04:59:13;3.53;;;0.50;;
70796;SDS011;63842;52.144;5.360;2024-01-15T05:01:43;5.50;;;0.70;;
70796;SDS011;63842;52.144;5.360;2024-01-15T05:04:10;4.15;;;0.60;;
70796;SDS011;63842;52.144;5.360;2024-01-15T05:06:38;3.05;;;0.75;;
70796;SDS011;63842;52.144;5.360;2024-01-15T05:09:05;3.72;;;0.52;;
70796;SDS011;63842;52.144;5.360;2024-01-15T05:11:33;3.13;;;0.63;;
70796;SDS011;63842;52.144;5.360;2024-01-15T05:14:00;2.72;;;0.50;;
70796;SDS011;63842;52.144;5.360;2024-01-15T05:16:28;2.72;;;0.38;;
70796;SDS011;63842;52.144;5.360;2024-01-15T05:18:55;3.63;;;0.68;;
70796;SDS011;63842;52.144;5.360;2024-01-15T05:21:22;5.40;;;0.60;;
70796;SDS011;63842;52.144;5.360;2024-01-15T05:23:50;4.82;;;0.75;;
70796;SDS011;63842;52.144;5.360;2024-01-15T05:26:17;2.28;;;0.52;;
70796;SDS011;63842;52.144;5.360;2024-01-15T05:28:44;4.15;;;0.52;;
70796;SDS011;63842;52.144;5.360;2024-01-15T05:31:12;4.80;;;0.70;;
70796;SDS011;63842;52.144;5.360;2024-01-15T05:33:39;3.25;;;0.40;;
70796;SDS011;63842;52.144;5.360;2024-01-15T05:36:07;2.80;;;0.57;;
70796;SDS011;63842;52.144;5.360;2024-01-15T05:38:34;4.07;;;1.00;;
70796;SDS011;63842;52.144;5.360;2024-01-15T05:41:02;3.53;;;0.70;;
70796;SDS011;63842;52.144;5.360;2024-01-15T05:43:29;2.15;;;0.55;;
70796;SDS011;63842;52.144;5.360;2024-01-15T05:45:56;4.90;;;0.85;;
70796;SDS011;63842;52.144;5.360;2024-01-15T05:48:24;4.60;;;0.73;;
70796;SDS011;63842;52.144;5.360;2024-01-15T05:50:52;4.32;;;0.80;;
70796;SDS011;63842;52.144;5.360;2024-01-15T05:53:19;4.20;;;0.52;;
70796;SDS011;63842;52.144;5.360;2024-01-15T05:55:46;4.35;;;0.65;;
70796;SDS011;63842;52.144;5.360;2024-01-15T05:58:14;2.92;;;0.63;;
70796;SDS011;63842;52.144;5.360;2024-01-15T06:00:41;4.47;;;0.63;;
70796;SDS011;63842;52.144;5.360;2024-01-15T06:03:08;7.07;;;0.88;;
70796;SDS011;63842;52.144;5.360;2024-01-15T06:05:36;3.45;;;0.82;;
70796;SDS011;63842;52.144;5.360;2024-01-15T06:08:03;4.20;;;0.75;;
70796;SDS011;63842;52.144;5.360;2024-01-15T06:10:31;4.03;;;0.57;;
70796;SDS011;63842;52.144;5.360;2024-01-15T06:12:58;2.22;;;0.35;;
70796;SDS011;63842;52.144;5.360;2024-01-15T06:15:25;4.97;;;0.73;;
70796;SDS011;63842;52.144;5.360;2024-01-15T06:17:53;2.13;;;0.60;;
70796;SDS011;63842;52.144;5.360;2024-01-15T06:20:20;3.60;;;0.70;;
70796;SDS011;63842;52.144;5.360;2024-01-15T06:22:47;5.07;;;0.57;;
70796;SDS011;63842;52.144;5.360;2024-01-15T06:25:15;6.10;;;1.00;;
70796;SDS011;63842;52.144;5.360;2024-01-15T06:27:42;2.22;;;0.70;;
70796;SDS011;63842;52.144;5.360;2024-01-15T06:30:09;5.20;;;0.90;;
70796;SDS011;63842;52.144;5.360;2024-01-15T06:32:38;2.55;;;0.60;;
70796;SDS011;63842;52.144;5.360;2024-01-15T06:35:05;4.07;;;0.70;;
70796;SDS011;63842;52.144;5.360;2024-01-15T06:37:33;2.28;;;0.50;;
70796;SDS011;63842;52.144;5.360;2024-01-15T06:40:00;11.40;;;5.60;;
70796;SDS011;63842;52.144;5.360;2024-01-15T06:42:27;9.65;;;4.90;;
70796;SDS011;63842;52.144;5.360;2024-01-15T06:44:55;6.88;;;2.53;;
70796;SDS011;63842;52.144;5.360;2024-01-15T06:47:26;4.82;;;1.13;;
70796;SDS011;63842;52.144;5.360;2024-01-15T06:49:53;2.13;;;0.98;;
70796;SDS011;63842;52.144;5.360;2024-01-15T06:52:21;2.67;;;0.95;;
70796;SDS011;63842;52.144;5.360;2024-01-15T06:54:48;3.30;;;0.90;;
70796;SDS011;63842;52.144;5.360;2024-01-15T06:57:16;4.22;;;1.17;;
70796;SDS011;63842;52.144;5.360;2024-01-15T06:59:43;5.03;;;1.05;;
70796;SDS011;63842;52.144;5.360;2024-01-15T07:02:10;5.50;;;1.20;;
70796;SDS011;63842;52.144;5.360;2024-01-15T07:04:38;3.30;;;1.15;;
70796;SDS011;63842;52.144;5.360;2024-01-15T07:07:08;4.85;;;1.10;;
70796;SDS011;63842;52.144;5.360;2024-01-15T07:09:36;3.85;;;0.90;;
70796;SDS011;63842;52.144;5.360;2024-01-15T07:12:03;6.05;;;1.30;;
70796;SDS011;63842;52.144;5.360;2024-01-15T07:14:31;5.90;;;1.20;;
70796;SDS011;63842;52.144;5.360;2024-01-15T07:16:58;3.38;;;1.10;;
70796;SDS011;63842;52.144;5.360;2024-01-15T07:19:26;2.72;;;1.02;;
70796;SDS011;63842;52.144;5.360;2024-01-15T07:21:54;6.65;;;1.08;;
70796;SDS011;63842;52.144;5.360;2024-01-15T07:24:22;5.95;;;1.60;;
70796;SDS011;63842;52.144;5.360;2024-01-15T07:26:50;9.23;;;1.20;;
70796;SDS011;63842;52.144;5.360;2024-01-15T07:29:17;3.22;;;1.10;;
70796;SDS011;63842;52.144;5.360;2024-01-15T07:31:49;5.15;;;1.30;;
70796;SDS011;63842;52.144;5.360;2024-01-15T07:34:17;3.72;;;1.20;;
70796;SDS011;63842;52.144;5.360;2024-01-15T07:36:45;4.35;;;1.10;;
70796;SDS011;63842;52.144;5.360;2024-01-15T07:39:16;3.00;;;1.02;;
70796;SDS011;63842;52.144;5.360;2024-01-15T07:41:44;3.13;;;1.00;;
70796;SDS011;63842;52.144;5.360;2024-01-15T07:44:11;3.80;;;0.90;;
70796;SDS011;63842;52.144;5.360;2024-01-15T07:46:38;4.05;;;1.15;;
70796;SDS011;63842;52.144;5.360;2024-01-15T07:49:06;3.13;;;0.85;;
70796;SDS011;63842;52.144;5.360;2024-01-15T07:51:33;2.90;;;1.10;;
70796;SDS011;63842;52.144;5.360;2024-01-15T07:54:01;2.42;;;0.80;;
70796;SDS011;63842;52.144;5.360;2024-01-15T07:56:28;4.75;;;1.25;;
70796;SDS011;63842;52.144;5.360;2024-01-15T07:58:56;4.03;;;1.10;;
70796;SDS011;63842;52.144;5.360;2024-01-15T08:01:23;3.78;;;1.15;;
70796;SDS011;63842;52.144;5.360;2024-01-15T08:03:52;4.20;;;1.30;;
70796;SDS011;63842;52.144;5.360;2024-01-15T08:06:21;7.03;;;1.30;;
70796;SDS011;63842;52.144;5.360;2024-01-15T08:08:49;5.60;;;1.23;;
70796;SDS011;63842;52.144;5.360;2024-01-15T08:11:16;5.50;;;1.40;;
70796;SDS011;63842;52.144;5.360;2024-01-15T08:13:44;5.88;;;1.48;;
70796;SDS011;63842;52.144;5.360;2024-01-15T08:16:11;5.00;;;1.70;;
70796;SDS011;63842;52.144;5.360;2024-01-15T08:18:40;4.90;;;1.50;;
70796;SDS011;63842;52.144;5.360;2024-01-15T08:21:10;7.03;;;2.35;;
70796;SDS011;63842;52.144;5.360;2024-01-15T08:23:38;10.77;;;3.97;;
70796;SDS011;63842;52.144;5.360;2024-01-15T08:26:05;7.00;;;3.08;;
70796;SDS011;63842;52.144;5.360;2024-01-15T08:28:32;9.75;;;2.70;;
70796;SDS011;63842;52.144;5.360;2024-01-15T08:31:01;6.25;;;2.05;;
70796;SDS011;63842;52.144;5.360;2024-01-15T08:33:29;8.43;;;1.95;;
70796;SDS011;63842;52.144;5.360;2024-01-15T08:35:56;5.70;;;1.85;;
70796;SDS011;63842;52.144;5.360;2024-01-15T08:38:24;6.18;;;1.92;;
70796;SDS011;63842;52.144;5.360;2024-01-15T08:40:51;4.05;;;1.48;;
70796;SDS011;63842;52.144;5.360;2024-01-15T08:43:20;5.55;;;1.52;;
70796;SDS011;63842;52.144;5.360;2024-01-15T08:45:47;4.72;;;1.67;;
70796;SDS011;63842;52.144;5.360;2024-01-15T08:48:15;3.50;;;1.40;;
70796;SDS011;63842;52.144;5.360;2024-01-15T08:50:42;6.70;;;1.40;;
70796;SDS011;63842;52.144;5.360;2024-01-15T08:53:12;4.63;;;1.27;;
70796;SDS011;63842;52.144;5.360;2024-01-15T08:55:40;7.20;;;1.30;;
70796;SDS011;63842;52.144;5.360;2024-01-15T08:58:10;6.47;;;1.23;;
70796;SDS011;63842;52.144;5.360;2024-01-15T09:00:38;5.40;;;1.40;;
70796;SDS011;63842;52.144;5.360;2024-01-15T09:03:06;3.53;;;0.82;;
70796;SDS011;63842;52.144;5.360;2024-01-15T09:05:34;4.97;;;1.13;;
70796;SDS011;63842;52.144;5.360;2024-01-15T09:08:02;3.30;;;0.95;;
70796;SDS011;63842;52.144;5.360;2024-01-15T09:10:30;4.30;;;0.90;;
70796;SDS011;63842;52.144;5.360;2024-01-15T09:12:57;3.53;;;0.95;;
70796;SDS011;63842;52.144;5.360;2024-01-15T09:15:25;7.00;;;1.23;;
70796;SDS011;63842;52.144;5.360;2024-01-15T09:17:52;5.13;;;0.90;;
70796;SDS011;63842;52.144;5.360;2024-01-15T09:20:20;7.35;;;1.20;;
70796;SDS011;63842;52.144;5.360;2024-01-15T09:22:47;5.75;;;1.08;;
70796;SDS011;63842;52.144;5.360;2024-01-15T09:25:15;6.05;;;1.17;;
70796;SDS011;63842;52.144;5.360;2024-01-15T09:27:42;3.72;;;1.02;;
70796;SDS011;63842;52.144;5.360;2024-01-15T09:30:10;8.82;;;0.98;;
70796;SDS011;63842;52.144;5.360;2024-01-15T09:32:37;4.22;;;1.10;;
70796;SDS011;63842;52.144;5.360;2024-01-15T09:35:05;3.28;;;0.77;;
70796;SDS011;63842;52.144;5.360;2024-01-15T09:37:32;3.05;;;0.73;;
70796;SDS011;63842;52.144;5.360;2024-01-15T09:40:12;5.22;;;0.85;;
70796;SDS011;63842;52.144;5.360;2024-01-15T09:42:42;5.32;;;1.00;;
70796;SDS011;63842;52.144;5.360;2024-01-15T09:45:09;6.22;;;0.93;;
70796;SDS011;63842;52.144;5.360;2024-01-15T09:47:37;4.00;;;0.88;;
70796;SDS011;63842;52.144;5.360;2024-01-15T09:50:10;5.15;;;1.10;;
70796;SDS011;63842;52.144;5.360;2024-01-15T09:52:38;3.63;;;0.55;;
70796;SDS011;63842;52.144;5.360;2024-01-15T09:55:06;4.28;;;1.00;;
70796;SDS011;63842;52.144;5.360;2024-01-15T09:57:35;4.40;;;0.80;;
70796;SDS011;63842;52.144;5.360;2024-01-15T10:00:03;2.05;;;0.55;;
70796;SDS011;63842;52.144;5.360;2024-01-15T10:02:31;2.80;;;0.63;;
70796;SDS011;63842;52.144;5.360;2024-01-15T10:04:59;4.35;;;0.73;;
70796;SDS011;63842;52.144;5.360;2024-01-15T10:07:26;3.80;;;0.88;;
70796;SDS011;63842;52.144;5.360;2024-01-15T10:09:55;2.40;;;0.70;;
70796;SDS011;63842;52.144;5.360;2024-01-15T10:12:22;3.20;;;0.55;;
70796;SDS011;63842;52.144;5.360;2024-01-15T10:14:50;5.22;;;0.70;;
70796;SDS011;63842;52.144;5.360;2024-01-15T10:17:17;4.60;;;0.88;;
70796;SDS011;63842;52.144;5.360;2024-01-15T10:19:45;3.97;;;0.75;;
70796;SDS011;63842;52.144;5.360;2024-01-15T10:22:16;6.90;;;0.80;;
70796;SDS011;63842;52.144;5.360;2024-01-15T10:24:46;3.38;;;0.80;;
70796;SDS011;63842;52.144;5.360;2024-01-15T10:27:15;2.67;;;0.80;;
70796;SDS011;63842;52.144;5.360;2024-01-15T10:29:43;3.97;;;0.77;;
70796;SDS011;63842;52.144;5.360;2024-01-15T10:32:10;6.45;;;1.13;;
70796;SDS011;63842;52.144;5.360;2024-01-15T10:34:39;4.18;;;0.77;;
70796;SDS011;63842;52.144;5.360;2024-01-15T10:37:08;6.90;;;1.10;;
70796;SDS011;63842;52.144;5.360;2024-01-15T10:39:35;4.43;;;0.82;;
70796;SDS011;63842;52.144;5.360;2024-01-15T10:42:04;6.03;;;0.75;;
70796;SDS011;63842;52.144;5.360;2024-01-15T10:44:33;8.13;;;0.88;;
70796;SDS011;63842;52.144;5.360;2024-01-15T10:47:01;2.63;;;0.88;;
70796;SDS011;63842;52.144;5.360;2024-01-15T10:49:29;3.05;;;0.82;;
70796;SDS011;63842;52.144;5.360;2024-01-15T10:52:03;4.80;;;0.90;;
70796;SDS011;63842;52.144;5.360;2024-01-15T10:54:30;3.13;;;0.70;;
70796;SDS011;63842;52.144;5.360;2024-01-15T10:56:59;3.30;;;0.85;;
70796;SDS011;63842;52.144;5.360;2024-01-15T10:59:26;4.90;;;0.80;;
70796;SDS011;63842;52.144;5.360;2024-01-15T11:01:55;5.25;;;0.90;;
70796;SDS011;63842;52.144;5.360;2024-01-15T11:04:23;6.60;;;1.13;;
70796;SDS011;63842;52.144;5.360;2024-01-15T11:06:54;5.20;;;0.80;;
70796;SDS011;63842;52.144;5.360;2024-01-15T11:11:52;6.15;;;0.85;;
70796;SDS011;63842;52.144;5.360;2024-01-15T11:17:06;4.50;;;1.02;;
70796;SDS011;63842;52.144;5.360;2024-01-15T11:22:11;3.72;;;0.70;;
70796;SDS011;63842;52.144;5.360;2024-01-15T11:25:01;4.47;;;1.10;;
70796;SDS011;63842;52.144;5.360;2024-01-15T11:27:44;4.75;;;0.73;;
70796;SDS011;63842;52.144;5.360;2024-01-15T11:30:20;5.53;;;0.90;;
70796;SDS011;63842;52.144;5.360;2024-01-15T11:32:47;4.85;;;0.75;;
70796;SDS011;63842;52.144;5.360;2024-01-15T11:35:15;7.00;;;1.08;;
70796;SDS011;63842;52.144;5.360;2024-01-15T11:40:22;3.50;;;0.80;;
70796;SDS011;63842;52.144;5.360;2024-01-15T11:42:49;2.80;;;0.43;;
70796;SDS011;63842;52.144;5.360;2024-01-15T11:45:19;2.05;;;0.52;;
70796;SDS011;63842;52.144;5.360;2024-01-15T11:50:33;1.95;;;0.60;;
70796;SDS011;63842;52.144;5.360;2024-01-15T11:53:02;3.90;;;0.70;;
70796;SDS011;63842;52.144;5.360;2024-01-15T11:55:38;4.50;;;0.50;;
70796;SDS011;63842;52.144;5.360;2024-01-15T11:58:09;3.92;;;0.60;;
70796;SDS011;63842;52.144;5.360;2024-01-15T12:00:43;3.50;;;0.50;;
70796;SDS011;63842;52.144;5.360;2024-01-15T12:03:12;2.45;;;0.52;;
70796;SDS011;63842;52.144;5.360;2024-01-15T12:05:40;5.45;;;0.90;;
70796;SDS011;63842;52.144;5.360;2024-01-15T12:08:10;5.70;;;1.08;;
70796;SDS011;63842;52.144;5.360;2024-01-15T12:10:38;3.33;;;0.65;;
70796;SDS011;63842;52.144;5.360;2024-01-15T12:13:11;4.13;;;0.80;;
70796;SDS011;63842;52.144;5.360;2024-01-15T12:15:44;3.13;;;0.75;;
70796;SDS011;63842;52.144;5.360;2024-01-15T12:18:12;3.67;;;0.60;;
70796;SDS011;63842;52.144;5.360;2024-01-15T12:20:41;5.65;;;1.05;;
70796;SDS011;63842;52.144;5.360;2024-01-15T12:23:09;3.38;;;0.98;;
70796;SDS011;63842;52.144;5.360;2024-01-15T12:25:37;4.80;;;1.23;;
70796;SDS011;63842;52.144;5.360;2024-01-15T12:28:05;2.17;;;0.75;;
70796;SDS011;63842;52.144;5.360;2024-01-15T12:30:33;1.83;;;0.75;;
70796;SDS011;63842;52.144;5.360;2024-01-15T12:33:02;4.38;;;0.90;;
70796;SDS011;63842;52.144;5.360;2024-01-15T12:35:30;1.13;;;0.60;;
70796;SDS011;63842;52.144;5.360;2024-01-15T12:37:59;3.17;;;0.63;;
70796;SDS011;63842;52.144;5.360;2024-01-15T12:40:30;3.60;;;0.80;;
70796;SDS011;63842;52.144;5.360;2024-01-15T12:42:59;3.20;;;0.75;;
70796;SDS011;63842;52.144;5.360;2024-01-15T12:45:26;5.32;;;1.05;;
70796;SDS011;63842;52.144;5.360;2024-01-15T12:47:54;3.22;;;0.75;;
70796;SDS011;63842;52.144;5.360;2024-01-15T12:50:23;3.75;;;0.70;;
70796;SDS011;63842;52.144;5.360;2024-01-15T12:52:52;7.93;;;1.00;;
70796;SDS011;63842;52.144;5.360;2024-01-15T12:55:20;2.80;;;0.65;;
70796;SDS011;63842;52.144;5.360;2024-01-15T12:57:51;3.72;;;0.77;;
70796;SDS011;63842;52.144;5.360;2024-01-15T13:00:21;4.63;;;0.60;;
70796;SDS011;63842;52.144;5.360;2024-01-15T13:02:49;4.05;;;0.80;;
70796;SDS011;63842;52.144;5.360;2024-01-15T13:05:16;4.07;;;0.98;;
70796;SDS011;63842;52.144;5.360;2024-01-15T13:07:45;2.80;;;0.68;;
70796;SDS011;63842;52.144;5.360;2024-01-15T13:10:12;4.07;;;0.82;;
70796;SDS011;63842;52.144;5.360;2024-01-15T13:12:40;4.85;;;0.75;;
70796;SDS011;63842;52.144;5.360;2024-01-15T13:15:08;3.35;;;0.73;;
70796;SDS011;63842;52.144;5.360;2024-01-15T13:17:40;2.47;;;0.90;;
70796;SDS011;63842;52.144;5.360;2024-01-15T13:20:08;4.07;;;0.70;;
70796;SDS011;63842;52.144;5.360;2024-01-15T13:22:41;3.80;;;0.60;;
70796;SDS011;63842;52.144;5.360;2024-01-15T13:25:11;2.97;;;0.85;;
70796;SDS011;63842;52.144;5.360;2024-01-15T13:27:38;4.82;;;0.60;;
70796;SDS011;63842;52.144;5.360;2024-01-15T13:30:08;3.08;;;0.70;;
70796;SDS011;63842;52.144;5.360;2024-01-15T13:32:35;3.72;;;0.40;;
70796;SDS011;63842;52.144;5.360;2024-01-15T13:35:03;3.80;;;0.50;;
70796;SDS011;63842;52.144;5.360;2024-01-15T13:37:36;5.15;;;1.15;;
70796;SDS011;63842;52.144;5.360;2024-01-15T13:40:04;4.97;;;1.10;;
70796;SDS011;63842;52.144;5.360;2024-01-15T13:42:34;6.88;;;0.80;;
70796;SDS011;63842;52.144;5.360;2024-01-15T13:45:05;4.40;;;0.70;;
70796;SDS011;63842;52.144;5.360;2024-01-15T13:47:32;4.68;;;0.80;;
70796;SDS011;63842;52.144;5.360;2024-01-15T13:50:00;2.88;;;0.80;;
70796;SDS011;63842;52.144;5.360;2024-01-15T13:52:27;5.45;;;0.75;;
70796;SDS011;63842;52.144;5.360;2024-01-15T13:54:54;7.90;;;1.10;;
70796;SDS011;63842;52.144;5.360;2024-01-15T13:57:22;4.68;;;1.02;;
70796;SDS011;63842;52.144;5.360;2024-01-15T13:59:49;5.35;;;1.10;;
70796;SDS011;63842;52.144;5.360;2024-01-15T14:02:17;4.75;;;0.88;;
70796;SDS011;63842;52.144;5.360;2024-01-15T14:04:48;8.02;;;0.93;;
70796;SDS011;63842;52.144;5.360;2024-01-15T14:07:16;4.15;;;0.75;;
70796;SDS011;63842;52.144;5.360;2024-01-15T14:09:43;7.05;;;1.27;;
70796;SDS011;63842;52.144;5.360;2024-01-15T14:12:11;6.70;;;1.38;;
70796;SDS011;63842;52.144;5.360;2024-01-15T14:14:39;6.10;;;0.70;;
70796;SDS011;63842;52.144;5.360;2024-01-15T14:17:07;7.10;;;0.80;;
70796;SDS011;63842;52.144;5.360;2024-01-15T14:19:35;6.80;;;1.17;;
70796;SDS011;63842;52.144;5.360;2024-01-15T14:22:03;6.90;;;0.88;;
70796;SDS011;63842;52.144;5.360;2024-01-15T14:24:30;5.25;;;1.48;;
70796;SDS011;63842;52.144;5.360;2024-01-15T14:26:58;6.32;;;0.98;;
70796;SDS011;63842;52.144;5.360;2024-01-15T14:29:26;7.35;;;1.23;;
70796;SDS011;63842;52.144;5.360;2024-01-15T14:31:53;4.47;;;1.30;;
70796;SDS011;63842;52.144;5.360;2024-01-15T14:34:21;6.93;;;1.10;;
70796;SDS011;63842;52.144;5.360;2024-01-15T14:36:51;5.78;;;1.00;;
70796;SDS011;63842;52.144;5.360;2024-01-15T14:39:22;8.27;;;1.17;;
70796;SDS011;63842;52.144;5.360;2024-01-15T14:41:50;5.38;;;1.08;;
70796;SDS011;63842;52.144;5.360;2024-01-15T14:44:18;6.57;;;1.45;;
70796;SDS011;63842;52.144;5.360;2024-01-15T14:46:45;7.38;;;1.17;;
70796;SDS011;63842;52.144;5.360;2024-01-15T14:49:13;9.95;;;1.50;;
70796;SDS011;63842;52.144;5.360;2024-01-15T14:51:41;5.35;;;0.90;;
70796;SDS011;63842;52.144;5.360;2024-01-15T14:54:09;11.35;;;1.17;;
70796;SDS011;63842;52.144;5.360;2024-01-15T14:56:37;4.85;;;1.10;;
70796;SDS011;63842;52.144;5.360;2024-01-15T14:59:04;7.88;;;1.00;;
70796;SDS011;63842;52.144;5.360;2024-01-15T15:01:31;10.35;;;1.70;;
70796;SDS011;63842;52.144;5.360;2024-01-15T15:03:59;7.57;;;1.63;;
70796;SDS011;63842;52.144;5.360;2024-01-15T15:06:27;6.45;;;1.05;;
70796;SDS011;63842;52.144;5.360;2024-01-15T15:08:55;5.50;;;0.98;;